sensor_id;sensor_type;location;lat;lon;timestamp;pressure;altitude;pressure_sealevel;temperature;humidity
38289;BME280;24092;53.370;-6.588;2023-03-04T00:00:15;102732.05;;;0.10;100.00
38289;BME280;24092;53.370;-6.588;2023-03-04T00:02:42;102735.17;;;-1.43;100.00
38289;BME280;24092;53.370;-6.588;2023-03-04T00:05:10;102734.84;;;-1.16;100.00
38289;BME280;24092;53.370;-6.588;2023-03-04T00:07:37;102733.95;;;-0.43;100.00
38289;BME280;24092;53.370;-6.588;2023-03-04T00:10:05;102729.02;;;-2.20;100.00
38289;BME280;24092;53.370;-6.588;2023-03-04T00:12:33;102725.37;;;-2.55;100.00
38289;BME280;24092;53.370;-6.588;2023-03-04T00:15:00;102726.73;;;-1.90;100.00
38289;BME280;24092;53.370;-6.588;2023-03-04T00:17:27;102724.51;;;-2.18;100.00
38289;BME280;24092;53.370;-6.588;2023-03-04T00:19:54;102728.13;;;-2.23;100.00
38289;BME280;24092;53.370;-6.588;2023-03-04T00:22:21;102722.55;;;-1.60;100.00
38289;BME280;24092;53.370;-6.588;2023-03-04T00:24:49;102721.25;;;-1.98;100.00
38289;BME280;24092;53.370;-6.588;2023-03-04T00:27:16;102722.60;;;-1.97;100.00
38289;BME280;24092;53.370;-6.588;2023-03-04T00:29:43;102724.19;;;-1.70;100.00
38289;BME280;24092;53.370;-6.588;2023-03-04T00:32:10;102719.99;;;-1.54;100.00
38289;BME280;24092;53.370;-6.588;2023-03-04T00:34:37;102717.26;;;-0.46;100.00
38289;BME280;24092;53.370;-6.588;2023-03-04T00:37:04;102716.47;;;-0.25;100.00
38289;BME280;24092;53.370;-6.588;2023-03-04T00:39:31;102719.10;;;-1.52;100.00
38289;BME280;24092;53.370;-6.588;2023-03-04T00:41:59;102713.42;;;0.14;100.00
38289;BME280;24092;53.370;-6.588;2023-03-04T00:44:26;102714.96;;;-1.62;100.00
38289;BME280;24092;53.370;-6.588;2023-03-04T00:46:53;102714.14;;;-0.97;100.00
38289;BME280;24092;53.370;-6.588;2023-03-04T00:49:21;102712.42;;;-0.28;100.00
38289;BME280;24092;53.370;-6.588;2023-03-04T00:51:50;102711.86;;;-1.42;100.00
38289;BME280;24092;53.370;-6.588;2023-03-04T00:54:17;102710.47;;;-1.34;100.00
38289;BME280;24092;53.370;-6.588;2023-03-04T01:00:20;102718.00;;;-1.95;100.00
38289;BME280;24092;53.370;-6.588;2023-03-04T01:02:48;102716.21;;;-0.36;100.00
38289;BME280;24092;53.370;-6.588;2023-03-04T01:05:15;102722.57;;;-1.05;100.00
38289;BME280;24092;53.370;-6.588;2023-03-04T01:07:42;102720.36;;;-0.38;100.00
38289;BME280;24092;53.370;-6.588;2023-03-04T01:10:12;102727.21;;;-1.03;100.00
38289;BME280;24092;53.370;-6.588;2023-03-04T01:12:41;102724.57;;;0.95;100.00
38289;BME280;24092;53.370;-6.588;2023-03-04T01:15:10;102725.71;;;0.63;100.00
38289;BME280;24092;53.370;-6.588;2023-03-04T01:17:37;102730.15;;;-0.01;100.00
38289;BME280;24092;53.370;-6.588;2023-03-04T01:20:07;102730.52;;;-0.40;100.00
38289;BME280;24092;53.370;-6.588;2023-03-04T01:22:35;102735.47;;;-0.63;100.00
38289;BME280;24092;53.370;-6.588;2023-03-04T01:25:03;102732.38;;;-0.09;100.00
38289;BME280;24092;53.370;-6.588;2023-03-04T01:27:38;102732.31;;;0.22;100.00
38289;BME280;24092;53.370;-6.588;2023-03-04T01:30:06;102730.10;;;0.71;100.00
38289;BME280;24092;53.370;-6.588;2023-03-04T01:32:33;102726.95;;;0.12;100.00
38289;BME280;24092;53.370;-6.588;2023-03-04T01:35:00;102727.32;;;0.12;100.00
38289;BME280;24092;53.370;-6.588;2023-03-04T01:37:27;102722.15;;;1.26;100.00
38289;BME280;24092;53.370;-6.588;2023-03-04T01:39:54;102722.48;;;0.91;100.00
38289;BME280;24092;53.370;-6.588;2023-03-04T01:42:23;102719.05;;;1.11;100.00
38289;BME280;24092;53.370;-6.588;2023-03-04T01:44:51;102717.51;;;0.91;100.00
38289;BME280;24092;53.370;-6.588;2023-03-04T01:47:21;102713.56;;;1.07;100.00
38289;BME280;24092;53.370;-6.588;2023-03-04T01:49:56;102710.03;;;-0.08;100.00
38289;BME280;24092;53.370;-6.588;2023-03-04T01:52:26;102718.71;;;-2.16;100.00
38289;BME280;24092;53.370;-6.588;2023-03-04T01:54:54;102714.80;;;-0.18;100.00
38289;BME280;24092;53.370;-6.588;2023-03-04T01:57:24;102713.56;;;-1.34;100.00
38289;BME280;24092;53.370;-6.588;2023-03-04T02:00:16;102707.46;;;-2.22;100.00
38289;BME280;24092;53.370;-6.588;2023-03-04T02:02:44;102708.00;;;-1.14;100.00
38289;BME280;24092;53.370;-6.588;2023-03-04T02:05:11;102704.97;;;-1.40;100.00
38289;BME280;24092;53.370;-6.588;2023-03-04T02:07:39;102701.21;;;-1.66;100.00
38289;BME280;24092;53.370;-6.588;2023-03-04T02:10:07;102702.76;;;-0.60;100.00
38289;BME280;24092;53.370;-6.588;2023-03-04T02:12:35;102701.18;;;-0.33;100.00
38289;BME280;24092;53.370;-6.588;2023-03-04T02:15:03;102702.55;;;-1.92;100.00
38289;BME280;24092;53.370;-6.588;2023-03-04T02:17:31;102704.52;;;-1.30;100.00
38289;BME280;24092;53.370;-6.588;2023-03-04T02:20:04;102696.73;;;0.13;100.00
38289;BME280;24092;53.370;-6.588;2023-03-04T02:22:37;102696.08;;;0.14;100.00
38289;BME280;24092;53.370;-6.588;2023-03-04T02:25:09;102700.26;;;0.70;100.00
38289;BME280;24092;53.370;-6.588;2023-03-04T02:27:37;102701.99;;;0.56;100.00
38289;BME280;24092;53.370;-6.588;2023-03-04T02:30:05;102701.95;;;-0.13;100.00
38289;BME280;24092;53.370;-6.588;2023-03-04T02:32:32;102703.86;;;1.53;100.00
38289;BME280;24092;53.370;-6.588;2023-03-04T02:34:59;102704.38;;;-0.74;100.00
38289;BME280;24092;53.370;-6.588;2023-03-04T02:37:26;102699.65;;;0.65;100.00
38289;BME280;24092;53.370;-6.588;2023-03-04T02:39:53;102696.56;;;-0.73;100.00
38289;BME280;24092;53.370;-6.588;2023-03-04T02:42:21;102697.38;;;0.77;100.00
38289;BME280;24092;53.370;-6.588;2023-03-04T02:44:48;102697.96;;;0.98;100.00
38289;BME280;24092;53.370;-6.588;2023-03-04T02:47:17;102690.21;;;2.65;100.00
38289;BME280;24092;53.370;-6.588;2023-03-04T02:49:45;102683.92;;;2.37;100.00
38289;BME280;24092;53.370;-6.588;2023-03-04T02:52:16;102689.56;;;1.01;100.00
38289;BME280;24092;53.370;-6.588;2023-03-04T02:54:44;102693.26;;;0.39;100.00
38289;BME280;24092;53.370;-6.588;2023-03-04T02:57:13;102694.48;;;-0.07;100.00
38289;BME280;24092;53.370;-6.588;2023-03-04T02:59:41;102691.32;;;1.34;100.00
38289;BME280;24092;53.370;-6.588;2023-03-04T03:02:09;102691.26;;;0.32;100.00
38289;BME280;24092;53.370;-6.588;2023-03-04T03:04:38;102689.35;;;1.20;100.00
38289;BME280;24092;53.370;-6.588;2023-03-04T03:07:06;102691.11;;;0.35;100.00
38289;BME280;24092;53.370;-6.588;2023-03-04T03:09:34;102690.10;;;-0.22;100.00
38289;BME280;24092;53.370;-6.588;2023-03-04T03:12:01;102692.51;;;-0.17;100.00
38289;BME280;24092;53.370;-6.588;2023-03-04T03:14:29;102693.86;;;-0.99;100.00
38289;BME280;24092;53.370;-6.588;2023-03-04T03:16:56;102692.15;;;-1.28;100.00
38289;BME280;24092;53.370;-6.588;2023-03-04T03:19:23;102687.75;;;-0.06;100.00
38289;BME280;24092;53.370;-6.588;2023-03-04T03:21:52;102688.20;;;-0.04;100.00
38289;BME280;24092;53.370;-6.588;2023-03-04T03:24:19;102691.91;;;-1.70;100.00
38289;BME280;24092;53.370;-6.588;2023-03-04T03:26:46;102686.50;;;-1.02;100.00
38289;BME280;24092;53.370;-6.588;2023-03-04T03:29:14;102686.96;;;0.46;100.00
38289;BME280;24092;53.370;-6.588;2023-03-04T03:31:41;102683.45;;;0.90;100.00
38289;BME280;24092;53.370;-6.588;2023-03-04T03:34:08;102683.70;;;1.08;100.00
38289;BME280;24092;53.370;-6.588;2023-03-04T03:36:35;102677.50;;;-0.76;100.00
38289;BME280;24092;53.370;-6.588;2023-03-04T03:39:03;102678.62;;;-0.05;100.00
38289;BME280;24092;53.370;-6.588;2023-03-04T03:41:30;102674.03;;;0.74;100.00
38289;BME280;24092;53.370;-6.588;2023-03-04T03:43:58;102669.02;;;1.90;100.00
38289;BME280;24092;53.370;-6.588;2023-03-04T03:46:25;102669.24;;;0.18;100.00
38289;BME280;24092;53.370;-6.588;2023-03-04T03:48:52;102669.87;;;0.72;100.00
38289;BME280;24092;53.370;-6.588;2023-03-04T03:51:19;102674.20;;;0.03;100.00
38289;BME280;24092;53.370;-6.588;2023-03-04T03:53:46;102677.03;;;-1.46;100.00
38289;BME280;24092;53.370;-6.588;2023-03-04T03:56:13;102672.35;;;-0.58;100.00
38289;BME280;24092;53.370;-6.588;2023-03-04T03:58:40;102674.73;;;0.17;100.00
38289;BME280;24092;53.370;-6.588;2023-03-04T04:01:13;102680.51;;;-0.47;100.00
38289;BME280;24092;53.370;-6.588;2023-03-04T04:03:40;102675.71;;;0.51;100.00
38289;BME280;24092;53.370;-6.588;2023-03-04T04:06:07;102675.17;;;-1.00;100.00
38289;BME280;24092;53.370;-6.588;2023-03-04T04:08:34;102678.82;;;-0.71;100.00
38289;BME280;24092;53.370;-6.588;2023-03-04T04:11:02;102679.42;;;-0.68;100.00
38289;BME280;24092;53.370;-6.588;2023-03-04T04:13:29;102676.02;;;-0.39;100.00
38289;BME280;24092;53.370;-6.588;2023-03-04T04:15:56;102670.14;;;0.40;100.00
38289;BME280;24092;53.370;-6.588;2023-03-04T04:18:23;102667.93;;;1.14;100.00
38289;BME280;24092;53.370;-6.588;2023-03-04T04:20:52;102664.33;;;-0.21;100.00
38289;BME280;24092;53.370;-6.588;2023-03-04T04:23:19;102671.71;;;-0.75;100.00
38289;BME280;24092;53.370;-6.588;2023-03-04T04:25:46;102676.17;;;-0.87;100.00
38289;BME280;24092;53.370;-6.588;2023-03-04T04:28:13;102672.32;;;-0.80;100.00
38289;BME280;24092;53.370;-6.588;2023-03-04T04:30:42;102670.37;;;-0.98;100.00
38289;BME280;24092;53.370;-6.588;2023-03-04T04:33:09;102669.13;;;-0.65;100.00
38289;BME280;24092;53.370;-6.588;2023-03-04T04:35:37;102661.74;;;0.04;100.00
38289;BME280;24092;53.370;-6.588;2023-03-04T04:38:04;102669.09;;;-1.43;100.00
38289;BME280;24092;53.370;-6.588;2023-03-04T04:40:31;102668.30;;;-0.98;100.00
38289;BME280;24092;53.370;-6.588;2023-03-04T04:42:58;102665.80;;;-0.44;100.00
38289;BME280;24092;53.370;-6.588;2023-03-04T04:45:25;102663.81;;;-0.39;100.00
38289;BME280;24092;53.370;-6.588;2023-03-04T04:47:53;102667.32;;;0.38;100.00
38289;BME280;24092;53.370;-6.588;2023-03-04T04:50:21;102667.39;;;0.78;100.00
38289;BME280;24092;53.370;-6.588;2023-03-04T04:52:48;102666.22;;;0.56;100.00
38289;BME280;24092;53.370;-6.588;2023-03-04T04:55:15;102666.92;;;-0.53;100.00
38289;BME280;24092;53.370;-6.588;2023-03-04T04:57:43;102667.44;;;0.13;100.00
38289;BME280;24092;53.370;-6.588;2023-03-04T05:00:11;102672.91;;;-0.40;100.00
38289;BME280;24092;53.370;-6.588;2023-03-04T05:02:39;102674.47;;;-0.83;100.00
38289;BME280;24092;53.370;-6.588;2023-03-04T05:05:07;102682.07;;;-1.16;100.00
38289;BME280;24092;53.370;-6.588;2023-03-04T05:07:34;102684.45;;;-1.93;100.00
38289;BME280;24092;53.370;-6.588;2023-03-04T05:10:03;102682.77;;;-0.22;100.00
38289;BME280;24092;53.370;-6.588;2023-03-04T05:12:30;102684.14;;;1.06;100.00
38289;BME280;24092;53.370;-6.588;2023-03-04T05:14:57;102685.23;;;0.36;100.00
38289;BME280;24092;53.370;-6.588;2023-03-04T05:17:25;102684.16;;;1.33;100.00
38289;BME280;24092;53.370;-6.588;2023-03-04T05:19:52;102685.38;;;-1.90;100.00
38289;BME280;24092;53.370;-6.588;2023-03-04T05:22:19;102684.85;;;-0.09;100.00
38289;BME280;24092;53.370;-6.588;2023-03-04T05:24:46;102684.45;;;0.87;100.00
38289;BME280;24092;53.370;-6.588;2023-03-04T05:27:13;102684.21;;;1.52;100.00
38289;BME280;24092;53.370;-6.588;2023-03-04T05:29:40;102683.52;;;0.01;100.00
38289;BME280;24092;53.370;-6.588;2023-03-04T05:32:08;102680.86;;;0.94;100.00
38289;BME280;24092;53.370;-6.588;2023-03-04T05:34:34;102685.71;;;-0.94;100.00
38289;BME280;24092;53.370;-6.588;2023-03-04T05:37:02;102686.31;;;-1.40;100.00
38289;BME280;24092;53.370;-6.588;2023-03-04T05:39:29;102680.07;;;-0.35;100.00
38289;BME280;24092;53.370;-6.588;2023-03-04T05:41:56;102680.69;;;-1.33;100.00
38289;BME280;24092;53.370;-6.588;2023-03-04T05:44:23;102681.91;;;-2.14;100.00
38289;BME280;24092;53.370;-6.588;2023-03-04T05:46:51;102684.16;;;-2.13;100.00
38289;BME280;24092;53.370;-6.588;2023-03-04T05:49:19;102692.04;;;-1.52;100.00
38289;BME280;24092;53.370;-6.588;2023-03-04T05:51:46;102693.35;;;-0.67;100.00
38289;BME280;24092;53.370;-6.588;2023-03-04T05:54:13;102690.24;;;-0.78;100.00
38289;BME280;24092;53.370;-6.588;2023-03-04T05:56:40;102693.30;;;-2.19;100.00
38289;BME280;24092;53.370;-6.588;2023-03-04T05:59:07;102689.83;;;0.38;100.00
38289;BME280;24092;53.370;-6.588;2023-03-04T06:01:34;102692.45;;;-1.75;100.00
38289;BME280;24092;53.370;-6.588;2023-03-04T06:04:02;102694.94;;;-1.07;100.00
38289;BME280;24092;53.370;-6.588;2023-03-04T06:06:29;102691.49;;;-2.73;100.00
38289;BME280;24092;53.370;-6.588;2023-03-04T06:08:56;102691.47;;;-1.70;100.00
38289;BME280;24092;53.370;-6.588;2023-03-04T06:11:23;102693.39;;;-2.01;100.00
38289;BME280;24092;53.370;-6.588;2023-03-04T06:13:51;102700.05;;;-0.58;100.00
38289;BME280;24092;53.370;-6.588;2023-03-04T06:16:18;102696.67;;;-0.34;100.00
38289;BME280;24092;53.370;-6.588;2023-03-04T06:18:45;102697.84;;;-1.04;100.00
38289;BME280;24092;53.370;-6.588;2023-03-04T06:21:12;102695.94;;;-0.43;100.00
38289;BME280;24092;53.370;-6.588;2023-03-04T06:23:39;102696.96;;;-0.48;100.00
38289;BME280;24092;53.370;-6.588;2023-03-04T06:26:07;102701.82;;;-0.96;100.00
38289;BME280;24092;53.370;-6.588;2023-03-04T06:28:34;102699.59;;;-0.32;100.00
38289;BME280;24092;53.370;-6.588;2023-03-04T06:31:01;102693.95;;;0.19;100.00
38289;BME280;24092;53.370;-6.588;2023-03-04T06:33:28;102697.72;;;-1.93;100.00
38289;BME280;24092;53.370;-6.588;2023-03-04T06:35:56;102695.39;;;-2.52;100.00
38289;BME280;24092;53.370;-6.588;2023-03-04T06:38:24;102698.85;;;-2.67;100.00
38289;BME280;24092;53.370;-6.588;2023-03-04T06:40:51;102704.02;;;-0.97;100.00
38289;BME280;24092;53.370;-6.588;2023-03-04T06:43:19;102703.77;;;-0.83;100.00
38289;BME280;24092;53.370;-6.588;2023-03-04T06:45:46;102697.16;;;-0.69;100.00
38289;BME280;24092;53.370;-6.588;2023-03-04T06:48:13;102698.85;;;-0.76;100.00
38289;BME280;24092;53.370;-6.588;2023-03-04T06:50:40;102697.64;;;-0.84;100.00
38289;BME280;24092;53.370;-6.588;2023-03-04T06:53:07;102699.32;;;-0.75;100.00
38289;BME280;24092;53.370;-6.588;2023-03-04T06:55:34;102702.55;;;-1.32;100.00
38289;BME280;24092;53.370;-6.588;2023-03-04T06:58:02;102698.33;;;0.13;100.00
38289;BME280;24092;53.370;-6.588;2023-03-04T07:00:29;102692.91;;;0.47;100.00
38289;BME280;24092;53.370;-6.588;2023-03-04T07:02:57;102691.16;;;-0.59;100.00
38289;BME280;24092;53.370;-6.588;2023-03-04T07:05:25;102690.23;;;-0.81;100.00
38289;BME280;24092;53.370;-6.588;2023-03-04T07:07:52;102695.58;;;-1.53;100.00
38289;BME280;24092;53.370;-6.588;2023-03-04T07:10:19;102694.90;;;0.02;100.00
38289;BME280;24092;53.370;-6.588;2023-03-04T07:12:46;102690.33;;;0.27;100.00
38289;BME280;24092;53.370;-6.588;2023-03-04T07:15:14;102694.28;;;0.82;100.00
38289;BME280;24092;53.370;-6.588;2023-03-04T07:17:41;102697.82;;;-1.82;100.00
38289;BME280;24092;53.370;-6.588;2023-03-04T07:20:09;102694.87;;;0.51;100.00
38289;BME280;24092;53.370;-6.588;2023-03-04T07:22:36;102697.86;;;-0.42;100.00
38289;BME280;24092;53.370;-6.588;2023-03-04T07:25:04;102697.02;;;1.46;100.00
38289;BME280;24092;53.370;-6.588;2023-03-04T07:27:31;102694.40;;;1.89;100.00
38289;BME280;24092;53.370;-6.588;2023-03-04T07:29:58;102697.63;;;0.34;100.00
38289;BME280;24092;53.370;-6.588;2023-03-04T07:32:25;102698.07;;;-0.95;100.00
38289;BME280;24092;53.370;-6.588;2023-03-04T07:34:53;102698.17;;;0.07;100.00
38289;BME280;24092;53.370;-6.588;2023-03-04T07:37:20;102702.15;;;-0.41;100.00
38289;BME280;24092;53.370;-6.588;2023-03-04T07:39:47;102702.41;;;-1.69;100.00
38289;BME280;24092;53.370;-6.588;2023-03-04T07:42:14;102704.32;;;-1.50;100.00
38289;BME280;24092;53.370;-6.588;2023-03-04T07:44:41;102707.33;;;-0.90;100.00
38289;BME280;24092;53.370;-6.588;2023-03-04T07:47:08;102707.53;;;-2.57;100.00
38289;BME280;24092;53.370;-6.588;2023-03-04T07:49:35;102705.46;;;-2.06;100.00
38289;BME280;24092;53.370;-6.588;2023-03-04T07:52:03;102708.05;;;-2.06;100.00
38289;BME280;24092;53.370;-6.588;2023-03-04T07:54:32;102709.51;;;-0.18;100.00
38289;BME280;24092;53.370;-6.588;2023-03-04T07:56:59;102711.36;;;-0.43;100.00
38289;BME280;24092;53.370;-6.588;2023-03-04T07:59:26;102714.86;;;-1.19;100.00
38289;BME280;24092;53.370;-6.588;2023-03-04T08:01:53;102719.38;;;-2.24;100.00
38289;BME280;24092;53.370;-6.588;2023-03-04T08:04:21;102720.90;;;-1.81;100.00
38289;BME280;24092;53.370;-6.588;2023-03-04T08:06:48;102723.80;;;-1.00;100.00
38289;BME280;24092;53.370;-6.588;2023-03-04T08:09:15;102723.20;;;-1.97;100.00
38289;BME280;24092;53.370;-6.588;2023-03-04T08:11:42;102729.06;;;-0.47;100.00
38289;BME280;24092;53.370;-6.588;2023-03-04T08:14:11;102727.71;;;-0.36;100.00
38289;BME280;24092;53.370;-6.588;2023-03-04T08:16:39;102731.09;;;-1.07;100.00
38289;BME280;24092;53.370;-6.588;2023-03-04T08:19:07;102728.33;;;-1.38;100.00
38289;BME280;24092;53.370;-6.588;2023-03-04T08:21:34;102729.52;;;-1.64;100.00
38289;BME280;24092;53.370;-6.588;2023-03-04T08:24:02;102729.06;;;-0.90;100.00
38289;BME280;24092;53.370;-6.588;2023-03-04T08:26:33;102726.88;;;-0.93;100.00
38289;BME280;24092;53.370;-6.588;2023-03-04T08:29:03;102721.71;;;-2.08;100.00
38289;BME280;24092;53.370;-6.588;2023-03-04T08:31:31;102728.87;;;-0.67;100.00
38289;BME280;24092;53.370;-6.588;2023-03-04T08:33:58;102725.47;;;0.09;100.00
38289;BME280;24092;53.370;-6.588;2023-03-04T08:36:25;102729.64;;;-1.21;100.00
38289;BME280;24092;53.370;-6.588;2023-03-04T08:38:52;102730.04;;;-0.24;100.00
38289;BME280;24092;53.370;-6.588;2023-03-04T08:41:19;102732.45;;;-2.17;100.00
38289;BME280;24092;53.370;-6.588;2023-03-04T08:43:47;102732.93;;;-2.36;100.00
38289;BME280;24092;53.370;-6.588;2023-03-04T08:46:13;102733.26;;;-2.36;100.00
38289;BME280;24092;53.370;-6.588;2023-03-04T08:48:40;102731.88;;;-1.17;100.00
38289;BME280;24092;53.370;-6.588;2023-03-04T08:51:09;102726.68;;;-1.25;100.00
38289;BME280;24092;53.370;-6.588;2023-03-04T08:53:37;102715.71;;;-0.03;100.00
38289;BME280;24092;53.370;-6.588;2023-03-04T08:56:06;102717.29;;;-0.70;100.00
38289;BME280;24092;53.370;-6.588;2023-03-04T08:58:34;102720.39;;;-0.20;100.00
38289;BME280;24092;53.370;-6.588;2023-03-04T09:01:02;102715.42;;;0.15;100.00
38289;BME280;24092;53.370;-6.588;2023-03-04T09:03:30;102715.85;;;1.09;100.00
38289;BME280;24092;53.370;-6.588;2023-03-04T09:05:57;102711.47;;;1.70;100.00
38289;BME280;24092;53.370;-6.588;2023-03-04T09:08:24;102717.47;;;-1.77;100.00
38289;BME280;24092;53.370;-6.588;2023-03-04T09:10:53;102715.00;;;0.83;100.00
38289;BME280;24092;53.370;-6.588;2023-03-04T09:13:21;102715.28;;;-2.25;100.00
38289;BME280;24092;53.370;-6.588;2023-03-04T09:15:50;102714.98;;;-0.98;100.00
38289;BME280;24092;53.370;-6.588;2023-03-04T09:18:19;102715.69;;;2.10;100.00
38289;BME280;24092;53.370;-6.588;2023-03-04T09:20:47;102714.21;;;-0.41;100.00
38289;BME280;24092;53.370;-6.588;2023-03-04T09:23:14;102716.46;;;0.39;100.00
38289;BME280;24092;53.370;-6.588;2023-03-04T09:25:43;102714.87;;;1.05;100.00
38289;BME280;24092;53.370;-6.588;2023-03-04T09:28:11;102719.63;;;-2.06;100.00
38289;BME280;24092;53.370;-6.588;2023-03-04T09:30:39;102719.39;;;0.50;100.00
38289;BME280;24092;53.370;-6.588;2023-03-04T09:33:06;102720.72;;;1.04;100.00
38289;BME280;24092;53.370;-6.588;2023-03-04T09:35:33;102721.31;;;0.26;100.00
38289;BME280;24092;53.370;-6.588;2023-03-04T09:38:01;102724.05;;;-0.59;100.00
38289;BME280;24092;53.370;-6.588;2023-03-04T09:40:31;102723.76;;;0.01;100.00
38289;BME280;24092;53.370;-6.588;2023-03-04T09:43:02;102728.62;;;0.65;100.00
38289;BME280;24092;53.370;-6.588;2023-03-04T09:45:34;102731.58;;;0.17;100.00
38289;BME280;24092;53.370;-6.588;2023-03-04T09:48:03;102734.34;;;-0.07;100.00
38289;BME280;24092;53.370;-6.588;2023-03-04T09:50:33;102735.20;;;0.22;100.00
38289;BME280;24092;53.370;-6.588;2023-03-04T09:53:08;102740.75;;;-1.48;100.00
38289;BME280;24092;53.370;-6.588;2023-03-04T09:55:40;102742.57;;;-0.94;100.00
38289;BME280;24092;53.370;-6.588;2023-03-04T09:58:26;102742.67;;;-0.68;100.00
38289;BME280;24092;53.370;-6.588;2023-03-04T10:01:02;102741.40;;;-1.85;100.00
38289;BME280;24092;53.370;-6.588;2023-03-04T10:03:40;102738.04;;;-1.91;100.00
38289;BME280;24092;53.370;-6.588;2023-03-04T10:06:10;102734.10;;;0.55;100.00
38289;BME280;24092;53.370;-6.588;2023-03-04T10:08:42;102732.72;;;-0.50;100.00
38289;BME280;24092;53.370;-6.588;2023-03-04T10:11:14;102728.13;;;-0.07;100.00
38289;BME280;24092;53.370;-6.588;2023-03-04T10:13:50;102729.18;;;0.46;100.00
38289;BME280;24092;53.370;-6.588;2023-03-04T10:16:21;102726.28;;;1.34;100.00
38289;BME280;24092;53.370;-6.588;2023-03-04T10:18:55;102724.33;;;0.84;100.00
38289;BME280;24092;53.370;-6.588;2023-03-04T10:21:29;102722.11;;;2.56;100.00
38289;BME280;24092;53.370;-6.588;2023-03-04T10:23:59;102720.87;;;2.99;100.00
38289;BME280;24092;53.370;-6.588;2023-03-04T10:26:29;102719.19;;;-0.31;100.00
38289;BME280;24092;53.370;-6.588;2023-03-04T10:28:56;102719.86;;;-1.65;100.00
38289;BME280;24092;53.370;-6.588;2023-03-04T10:31:31;102711.72;;;0.03;100.00
38289;BME280;24092;53.370;-6.588;2023-03-04T10:33:58;102711.31;;;-1.99;100.00
38289;BME280;24092;53.370;-6.588;2023-03-04T10:36:35;102714.15;;;-1.13;100.00
38289;BME280;24092;53.370;-6.588;2023-03-04T10:39:08;102711.02;;;-3.09;100.00
38289;BME280;24092;53.370;-6.588;2023-03-04T10:41:41;102708.26;;;-2.00;100.00
38289;BME280;24092;53.370;-6.588;2023-03-04T10:44:15;102704.95;;;-2.45;100.00
38289;BME280;24092;53.370;-6.588;2023-03-04T10:46:44;102708.25;;;-3.58;100.00
38289;BME280;24092;53.370;-6.588;2023-03-04T10:49:13;102708.24;;;-3.42;100.00
38289;BME280;24092;53.370;-6.588;2023-03-04T10:51:43;102704.62;;;-3.10;100.00
38289;BME280;24092;53.370;-6.588;2023-03-04T10:54:22;102704.25;;;-1.75;100.00
38289;BME280;24092;53.370;-6.588;2023-03-04T10:56:57;102708.89;;;-0.74;100.00
38289;BME280;24092;53.370;-6.588;2023-03-04T10:59:33;102705.79;;;-1.33;100.00
38289;BME280;24092;53.370;-6.588;2023-03-04T11:02:17;102705.53;;;-1.16;100.00
38289;BME280;24092;53.370;-6.588;2023-03-04T11:04:49;102706.67;;;-0.92;100.00
38289;BME280;24092;53.370;-6.588;2023-03-04T11:07:17;102705.30;;;-2.16;100.00
38289;BME280;24092;53.370;-6.588;2023-03-04T11:09:44;102707.16;;;-1.06;100.00
38289;BME280;24092;53.370;-6.588;2023-03-04T11:12:13;102702.60;;;-1.48;100.00
38289;BME280;24092;53.370;-6.588;2023-03-04T11:14:45;102702.19;;;-0.23;100.00
38289;BME280;24092;53.370;-6.588;2023-03-04T11:17:20;102703.73;;;0.62;100.00
38289;BME280;24092;53.370;-6.588;2023-03-04T11:19:51;102702.49;;;-0.97;100.00
38289;BME280;24092;53.370;-6.588;2023-03-04T11:22:21;102697.78;;;-0.99;100.00
38289;BME280;24092;53.370;-6.588;2023-03-04T11:24:55;102698.63;;;-0.80;100.00
38289;BME280;24092;53.370;-6.588;2023-03-04T11:27:29;102695.18;;;-2.04;100.00
38289;BME280;24092;53.370;-6.588;2023-03-04T11:30:08;102696.86;;;-1.20;100.00
38289;BME280;24092;53.370;-6.588;2023-03-04T11:32:45;102696.17;;;-0.66;100.00
38289;BME280;24092;53.370;-6.588;2023-03-04T11:35:20;102690.50;;;-0.73;100.00
38289;BME280;24092;53.370;-6.588;2023-03-04T11:37:56;102691.41;;;-1.49;100.00
38289;BME280;24092;53.370;-6.588;2023-03-04T11:40:32;102688.26;;;-1.99;100.00
38289;BME280;24092;53.370;-6.588;2023-03-04T11:43:04;102685.87;;;-1.57;100.00
38289;BME280;24092;53.370;-6.588;2023-03-04T11:45:52;102676.58;;;0.31;100.00
38289;BME280;24092;53.370;-6.588;2023-03-04T11:48:37;102682.08;;;-0.94;100.00
38289;BME280;24092;53.370;-6.588;2023-03-04T11:51:12;102681.84;;;-1.40;100.00
38289;BME280;24092;53.370;-6.588;2023-03-04T11:53:52;102677.70;;;-2.13;100.00
38289;BME280;24092;53.370;-6.588;2023-03-04T11:56:29;102671.85;;;-2.39;100.00
38289;BME280;24092;53.370;-6.588;2023-03-04T11:59:14;102669.95;;;-0.10;100.00
38289;BME280;24092;53.370;-6.588;2023-03-04T12:01:50;102668.47;;;-2.00;100.00
38289;BME280;24092;53.370;-6.588;2023-03-04T12:04:38;102668.02;;;-2.46;100.00
38289;BME280;24092;53.370;-6.588;2023-03-04T12:07:18;102669.04;;;-1.94;100.00
38289;BME280;24092;53.370;-6.588;2023-03-04T12:09:59;102664.21;;;-2.45;100.00
38289;BME280;24092;53.370;-6.588;2023-03-04T12:12:41;102664.81;;;-0.64;100.00
38289;BME280;24092;53.370;-6.588;2023-03-04T12:15:18;102662.66;;;-0.72;100.00
38289;BME280;24092;53.370;-6.588;2023-03-04T12:18:04;102664.05;;;-1.04;100.00
38289;BME280;24092;53.370;-6.588;2023-03-04T12:20:47;102659.88;;;-0.69;100.00
38289;BME280;24092;53.370;-6.588;2023-03-04T12:23:26;102663.14;;;-1.11;100.00
38289;BME280;24092;53.370;-6.588;2023-03-04T12:26:02;102655.25;;;-0.25;100.00
38289;BME280;24092;53.370;-6.588;2023-03-04T12:28:44;102657.40;;;-0.26;100.00
38289;BME280;24092;53.370;-6.588;2023-03-04T12:31:25;102654.89;;;-0.16;100.00
38289;BME280;24092;53.370;-6.588;2023-03-04T12:34:05;102659.56;;;-1.54;100.00
38289;BME280;24092;53.370;-6.588;2023-03-04T12:36:40;102650.61;;;-0.39;100.00
38289;BME280;24092;53.370;-6.588;2023-03-04T12:39:22;102648.20;;;0.59;100.00
38289;BME280;24092;53.370;-6.588;2023-03-04T12:41:57;102643.85;;;1.37;100.00
38289;BME280;24092;53.370;-6.588;2023-03-04T12:44:30;102642.22;;;0.37;100.00
38289;BME280;24092;53.370;-6.588;2023-03-04T12:47:39;102642.53;;;1.21;100.00